createdAt,value
2018-08-05T00:04:01.000Z,1013.683
2018-08-05T00:14:01.000Z,1013.747
2018-08-05T00:24:01.000Z,1013.775
2018-08-05T00:34:01.000Z,1013.847
2018-08-05T00:44:01.000Z,1013.826
2018-08-05T00:54:01.000Z,1013.81
2018-08-05T01:04:01.000Z,1013.86
2018-08-05T01:14:01.000Z,1013.915
2018-08-05T01:24:01.000Z,1014.013
2018-08-05T01:34:01.000Z,1014.047
2018-08-05T01:44:01.000Z,1014.057
2018-08-05T01:54:01.000Z,1013.949
2018-08-05T02:04:02.000Z,1013.9
2018-08-05T02:14:01.000Z,1013.935
2018-08-05T02:24:01.000Z,1014.046
2018-08-05T02:34:01.000Z,1014.064
2018-08-05T02:44:03.000Z,1014.059
2018-08-05T02:54:01.000Z,1014.06
2018-08-05T03:04:01.000Z,1014.092
2018-08-05T03:14:01.000Z,1014.079
2018-08-05T03:24:01.000Z,1014.1
2018-08-05T03:34:01.000Z,1014.109
2018-08-05T03:44:01.000Z,1014.251
2018-08-05T03:54:01.000Z,1014.36
2018-08-05T04:04:01.000Z,1014.52
2018-08-05T04:14:01.000Z,1014.485
2018-08-05T04:24:01.000Z,1014.476
2018-08-05T04:34:01.000Z,1014.541
2018-08-05T04:44:01.000Z,1014.603
2018-08-05T04:54:01.000Z,1014.756
2018-08-05T05:04:01.000Z,1014.843
2018-08-05T05:14:02.000Z,1014.893
2018-08-05T05:24:02.000Z,1014.967
2018-08-05T05:34:02.000Z,1015.062
2018-08-05T05:44:02.000Z,1015.119
2018-08-05T05:54:02.000Z,1015.212
2018-08-05T06:04:02.000Z,1015.24
2018-08-05T06:14:02.000Z,1015.395
2018-08-05T06:24:02.000Z,1015.391
2018-08-05T06:34:02.000Z,1015.458
2018-08-05T06:44:02.000Z,1015.575
2018-08-05T06:54:02.000Z,1015.59
2018-08-05T07:04:02.000Z,1015.477
2018-08-05T07:14:02.000Z,1015.516
2018-08-05T07:24:02.000Z,1015.591
2018-08-05T07:34:02.000Z,1015.657
2018-08-05T07:44:02.000Z,1015.652
2018-08-05T07:54:02.000Z,1015.636
2018-08-05T08:04:02.000Z,1015.62
2018-08-05T08:14:03.000Z,1015.545
2018-08-05T08:24:02.000Z,1015.623
2018-08-05T08:34:02.000Z,1015.657
2018-08-05T08:44:02.000Z,1015.655
2018-08-05T08:54:02.000Z,1015.56
2018-08-05T09:04:02.000Z,1015.597
2018-08-05T09:14:02.000Z,1015.535
2018-08-05T09:24:02.000Z,1015.556
2018-08-05T09:34:02.000Z,1015.548
2018-08-05T09:44:02.000Z,1015.622
2018-08-05T09:54:02.000Z,1015.599
2018-08-05T10:04:02.000Z,1015.447
2018-08-05T10:14:02.000Z,1015.452
2018-08-05T10:24:02.000Z,1015.386
2018-08-05T10:34:02.000Z,1015.401
2018-08-05T10:44:02.000Z,1015.429
2018-08-05T10:54:02.000Z,1015.322
2018-08-05T11:04:02.000Z,1015.256
2018-08-05T11:14:03.000Z,1015.295
2018-08-05T11:24:02.000Z,1015.18
2018-08-05T11:34:02.000Z,1015.142
2018-08-05T11:44:02.000Z,1015.086
2018-08-05T11:54:03.000Z,1015.082
2018-08-05T12:04:02.000Z,1015.054
2018-08-05T12:14:02.000Z,1015.13
2018-08-05T12:24:02.000Z,1014.991
2018-08-05T12:34:02.000Z,1014.921
2018-08-05T12:44:02.000Z,1014.782
2018-08-05T12:54:02.000Z,1014.768
2018-08-05T13:04:02.000Z,1014.706
2018-08-05T13:14:02.000Z,1014.523
2018-08-05T13:24:05.000Z,1014.458
2018-08-05T13:34:03.000Z,1014.37
2018-08-05T13:44:03.000Z,1014.379
2018-08-05T13:54:04.000Z,1014.442
2018-08-05T14:04:03.000Z,1014.429
2018-08-05T14:14:03.000Z,1014.21
2018-08-05T14:24:03.000Z,1014.026
2018-08-05T14:34:03.000Z,1013.939
2018-08-05T14:44:03.000Z,1013.898
2018-08-05T14:54:03.000Z,1013.918
2018-08-05T15:04:03.000Z,1013.832
2018-08-05T15:14:03.000Z,1013.798
2018-08-05T15:24:03.000Z,1013.79
2018-08-05T15:34:03.000Z,1013.681
2018-08-05T15:44:03.000Z,1013.651
2018-08-05T15:54:03.000Z,1013.617
2018-08-05T16:04:03.000Z,1013.479
2018-08-05T16:14:03.000Z,1013.475
2018-08-05T16:24:03.000Z,1013.353
2018-08-05T16:34:03.000Z,1013.284
2018-08-05T16:44:03.000Z,1013.211
2018-08-05T16:54:04.000Z,1013.256
2018-08-05T17:04:03.000Z,1013.218
2018-08-05T17:14:03.000Z,1013.135
2018-08-05T17:24:03.000Z,1013.085
2018-08-05T17:34:03.000Z,1013.081
2018-08-05T17:44:03.000Z,1013.004
2018-08-05T17:54:03.000Z,1013.001
2018-08-05T18:04:03.000Z,1012.964
2018-08-05T18:14:03.000Z,1013.012
2018-08-05T18:24:03.000Z,1012.985
2018-08-05T18:34:03.000Z,1012.913
2018-08-05T18:44:03.000Z,1012.961
2018-08-05T18:54:03.000Z,1013.023
2018-08-05T19:04:03.000Z,1013.043
2018-08-05T19:14:03.000Z,1013.002
2018-08-05T19:24:03.000Z,1013.084
2018-08-05T19:34:03.000Z,1013.115
2018-08-05T19:44:03.000Z,1013.147
2018-08-05T19:54:03.000Z,1013.085
2018-08-05T20:04:03.000Z,1013.074
2018-08-05T20:14:03.000Z,1013.05
2018-08-05T20:24:03.000Z,1013.108
2018-08-05T20:34:03.000Z,1013.153
2018-08-05T20:44:03.000Z,1013.18
2018-08-05T20:54:03.000Z,1013.212
2018-08-05T21:04:03.000Z,1013.272
2018-08-05T21:14:03.000Z,1013.314
2018-08-05T21:24:04.000Z,1013.346
2018-08-05T21:34:04.000Z,1013.381
2018-08-05T21:44:04.000Z,1013.317
2018-08-05T21:54:04.000Z,1013.369
2018-08-05T22:04:04.000Z,1013.302
2018-08-05T22:14:04.000Z,1013.279
2018-08-05T22:24:04.000Z,1013.305
2018-08-05T22:34:04.000Z,1013.31
2018-08-05T22:44:04.000Z,1013.327
2018-08-05T22:54:04.000Z,1013.323
2018-08-05T23:04:04.000Z,1013.29
2018-08-05T23:14:04.000Z,1013.219
2018-08-05T23:24:04.000Z,1013.181
2018-08-05T23:34:04.000Z,1013.135
2018-08-05T23:44:04.000Z,1013.126
2018-08-05T23:54:04.000Z,1013.146
